createdAt,value
2018-06-19T00:01:34.554Z,9.17
2018-06-19T00:04:02.992Z,9.40
2018-06-19T00:06:31.434Z,8.53
2018-06-19T00:08:59.894Z,12.23
2018-06-19T00:11:28.333Z,11.83
2018-06-19T00:13:56.780Z,11.17
2018-06-19T00:16:25.209Z,12.53
2018-06-19T00:18:56.777Z,9.50
2018-06-19T00:21:29.357Z,9.33
2018-06-19T00:23:57.818Z,10.37
2018-06-19T00:26:26.254Z,9.80
2018-06-19T00:28:54.708Z,10.47
2018-06-19T00:31:22.862Z,9.50
2018-06-19T00:33:51.307Z,10.03
2018-06-19T00:36:19.749Z,8.53
2018-06-19T00:38:48.202Z,8.37
2018-06-19T00:41:16.629Z,8.83
2018-06-19T00:43:45.115Z,8.57
2018-06-19T00:46:14.009Z,7.73
2018-06-19T00:48:42.450Z,9.10
2018-06-19T00:51:10.863Z,9.03
2018-06-19T00:53:39.305Z,8.93
2018-06-19T00:56:18.966Z,10.07
2018-06-19T00:58:47.410Z,9.63
2018-06-19T01:01:15.823Z,8.67
2018-06-19T01:03:44.269Z,8.63
2018-06-19T01:06:12.698Z,13.43
2018-06-19T01:08:41.140Z,9.03
2018-06-19T01:11:09.570Z,10.37
2018-06-19T01:13:37.986Z,9.20
2018-06-19T01:16:06.437Z,10.67
2018-06-19T01:18:34.894Z,10.83
2018-06-19T01:21:03.382Z,9.70
2018-06-19T01:23:31.845Z,10.20
2018-06-19T01:26:00.326Z,9.30
2018-06-19T01:28:28.771Z,10.67
2018-06-19T01:30:57.214Z,9.13
2018-06-19T01:33:25.648Z,10.17
2018-06-19T01:35:54.256Z,11.87
2018-06-19T01:38:22.700Z,9.60
2018-06-19T01:40:51.178Z,8.40
2018-06-19T01:43:19.591Z,8.80
2018-06-19T01:51:29.562Z,8.80
2018-06-19T01:53:58.084Z,9.60
2018-06-19T01:56:26.574Z,12.07
2018-06-19T01:58:55.030Z,10.03
2018-06-19T02:01:23.531Z,9.10
2018-06-19T02:03:52.054Z,8.73
2018-06-19T02:06:20.200Z,9.20
2018-06-19T02:08:48.673Z,9.77
2018-06-19T02:11:17.134Z,9.70
2018-06-19T02:13:45.629Z,9.40
2018-06-19T02:16:14.085Z,12.77
2018-06-19T02:18:42.575Z,10.60
2018-06-19T02:21:11.068Z,11.67
2018-06-19T02:23:39.553Z,10.83
2018-06-19T02:26:08.022Z,10.77
2018-06-19T02:28:36.523Z,8.67
2018-06-19T02:31:04.983Z,9.30
2018-06-19T02:33:33.516Z,7.93
2018-06-19T02:36:02.016Z,9.40
2018-06-19T02:38:30.542Z,9.20
2018-06-19T02:40:58.991Z,8.20
2018-06-19T02:43:27.511Z,9.00
2018-06-19T02:45:55.967Z,9.00
2018-06-19T02:48:24.487Z,10.33
2018-06-19T02:50:53.209Z,9.23
2018-06-19T02:53:21.690Z,13.10
2018-06-19T02:55:50.149Z,10.33
2018-06-19T02:58:18.277Z,9.40
2018-06-19T03:00:46.779Z,15.10
2018-06-19T03:03:15.238Z,10.57
2018-06-19T03:05:43.767Z,9.90
2018-06-19T03:08:12.249Z,11.23
2018-06-19T03:10:40.742Z,9.50
2018-06-19T03:13:09.210Z,10.33
2018-06-19T03:15:37.691Z,9.03
2018-06-19T03:18:06.174Z,9.43
2018-06-19T03:20:34.655Z,11.67
2018-06-19T03:23:03.136Z,9.57
2018-06-19T03:25:31.618Z,9.67
2018-06-19T03:28:00.076Z,8.73
2018-06-19T03:30:28.590Z,9.93
2018-06-19T03:32:57.069Z,12.50
2018-06-19T03:35:25.533Z,12.07
2018-06-19T03:37:53.977Z,14.33
2018-06-19T03:40:22.470Z,9.87
2018-06-19T03:42:50.935Z,10.10
2018-06-19T03:45:19.397Z,9.50
2018-06-19T03:47:47.858Z,9.13
2018-06-19T03:50:16.327Z,11.93
2018-06-19T03:52:44.776Z,11.47
2018-06-19T03:55:13.229Z,10.80
2018-06-19T03:57:41.722Z,9.10
2018-06-19T04:00:10.181Z,9.50
2018-06-19T04:02:38.650Z,11.97
2018-06-19T04:05:07.213Z,9.83
2018-06-19T04:07:35.723Z,8.97
2018-06-19T04:10:04.290Z,9.10
2018-06-19T04:12:32.760Z,10.33
2018-06-19T04:15:01.190Z,10.57
2018-06-19T04:17:29.697Z,10.70
2018-06-19T04:19:58.621Z,10.70
2018-06-19T04:22:28.622Z,11.33
2018-06-19T04:24:57.451Z,9.77
2018-06-19T04:27:26.002Z,9.20
2018-06-19T04:29:54.472Z,9.80
2018-06-19T04:32:22.928Z,11.73
2018-06-19T04:34:51.437Z,11.77
2018-06-19T04:37:19.974Z,11.13
2018-06-19T04:39:48.463Z,10.63
2018-06-19T04:42:16.604Z,12.33
2018-06-19T04:44:45.064Z,10.37
2018-06-19T04:47:13.524Z,14.43
2018-06-19T04:49:42.060Z,12.57
2018-06-19T04:52:10.482Z,11.23
2018-06-19T04:54:38.958Z,10.57
2018-06-19T04:57:07.423Z,10.07
2018-06-19T04:59:35.609Z,10.40
2018-06-19T05:02:04.124Z,12.90
2018-06-19T05:04:32.654Z,10.20
2018-06-19T05:07:00.805Z,9.80
2018-06-19T05:09:29.298Z,11.70
2018-06-19T05:11:57.767Z,11.50
2018-06-19T05:14:26.256Z,11.77
2018-06-19T05:16:54.726Z,12.97
2018-06-19T05:19:23.209Z,12.50
2018-06-19T05:21:51.649Z,12.87
2018-06-19T05:24:20.141Z,10.67
2018-06-19T05:26:48.606Z,13.00
2018-06-19T05:29:17.082Z,10.90
2018-06-19T05:31:45.543Z,9.53
2018-06-19T05:34:14.051Z,11.03
2018-06-19T05:36:42.532Z,9.40
2018-06-19T05:39:11.686Z,9.73
2018-06-19T05:41:40.251Z,9.37
2018-06-19T05:44:09.171Z,9.13
2018-06-19T05:46:37.942Z,10.33
2018-06-19T05:49:06.516Z,10.83
2018-06-19T05:51:35.029Z,9.40
2018-06-19T05:54:03.506Z,9.40
2018-06-19T05:56:31.812Z,8.63
2018-06-19T05:59:00.269Z,9.03
2018-06-19T06:01:28.721Z,8.13
2018-06-19T06:03:57.194Z,9.80
2018-06-19T06:06:25.684Z,9.20
2018-06-19T06:08:54.146Z,9.67
2018-06-19T06:11:22.658Z,9.17
2018-06-19T06:13:51.055Z,8.47
2018-06-19T06:16:19.566Z,11.10
2018-06-19T06:18:48.068Z,9.27
2018-06-19T06:21:16.574Z,9.03
2018-06-19T06:23:45.057Z,9.47
2018-06-19T06:26:13.630Z,10.43
2018-06-19T06:28:42.169Z,9.67
2018-06-19T06:31:10.663Z,11.23
2018-06-19T06:33:39.129Z,9.63
2018-06-19T06:36:07.625Z,9.10
2018-06-19T06:38:36.225Z,7.93
2018-06-19T06:41:04.707Z,9.43
2018-06-19T06:43:33.188Z,9.53
2018-06-19T06:46:01.670Z,9.77
2018-06-19T06:48:30.360Z,7.47
2018-06-19T06:50:59.172Z,7.10
2018-06-19T06:53:27.678Z,7.73
2018-06-19T06:55:56.174Z,6.23
2018-06-19T06:58:25.022Z,7.43
2018-06-19T07:00:53.502Z,8.50
2018-06-19T07:03:22.485Z,8.07
2018-06-19T07:05:51.291Z,9.87
2018-06-19T07:08:19.790Z,6.40
2018-06-19T07:10:48.882Z,6.33
2018-06-19T07:13:17.456Z,5.80
2018-06-19T07:15:46.137Z,7.83
2018-06-19T07:18:14.496Z,8.90
2018-06-19T07:20:42.680Z,6.07
2018-06-19T07:23:11.159Z,7.57
2018-06-19T07:25:39.665Z,7.33
2018-06-19T07:28:08.101Z,6.27
2018-06-19T07:30:36.686Z,5.90
2018-06-19T07:33:05.253Z,6.40
2018-06-19T07:35:33.728Z,7.47
2018-06-19T07:38:02.269Z,6.53
2018-06-19T07:40:30.732Z,7.90
2018-06-19T07:43:02.962Z,6.50
2018-06-19T07:45:31.442Z,6.30
2018-06-19T07:48:00.459Z,5.70
2018-06-19T07:50:29.573Z,5.53
2018-06-19T07:52:58.036Z,5.77
2018-06-19T07:55:26.587Z,5.03
2018-06-19T07:57:55.121Z,5.13
2018-06-19T08:00:23.992Z,6.00
2018-06-19T08:02:52.517Z,5.13
2018-06-19T08:05:21.056Z,5.33
2018-06-19T08:07:49.513Z,6.37
2018-06-19T08:10:17.962Z,5.07
2018-06-19T08:12:47.022Z,6.07
2018-06-19T08:15:15.521Z,5.30
2018-06-19T08:17:43.993Z,6.70
2018-06-19T08:20:12.626Z,5.17
2018-06-19T08:22:41.243Z,4.80
2018-06-19T08:25:09.417Z,6.10
2018-06-19T08:27:38.513Z,5.83
2018-06-19T08:30:07.036Z,6.07
2018-06-19T08:32:35.525Z,6.00
2018-06-19T08:35:04.062Z,5.53
2018-06-19T08:37:32.554Z,4.13
2018-06-19T08:40:01.037Z,4.50
2018-06-19T08:42:29.519Z,5.63
2018-06-19T08:44:57.993Z,6.87
2018-06-19T08:47:26.510Z,4.40
2018-06-19T08:49:54.974Z,4.00
2018-06-19T08:52:23.482Z,4.37
2018-06-19T08:54:51.969Z,3.63
2018-06-19T08:57:20.450Z,3.43
2018-06-19T08:59:48.946Z,4.43
2018-06-19T09:02:17.445Z,2.77
2018-06-19T09:04:46.010Z,3.00
2018-06-19T09:07:14.165Z,3.60
2018-06-19T09:09:42.670Z,2.77
2018-06-19T09:12:11.121Z,3.23
2018-06-19T09:14:39.609Z,2.47
2018-06-19T09:17:08.082Z,1.73
2018-06-19T09:19:36.572Z,2.57
2018-06-19T09:22:05.997Z,2.63
2018-06-19T09:24:34.608Z,1.67
2018-06-19T09:27:03.058Z,4.03
2018-06-19T09:29:31.509Z,2.87
2018-06-19T09:31:59.961Z,2.07
2018-06-19T09:34:28.473Z,1.70
2018-06-19T09:36:56.958Z,2.23
2018-06-19T09:39:25.442Z,1.60
2018-06-19T09:41:53.917Z,2.13
2018-06-19T09:44:22.397Z,1.87
2018-06-19T09:46:50.833Z,2.50
2018-06-19T09:49:19.314Z,1.73
2018-06-19T09:51:47.841Z,2.70
2018-06-19T09:54:16.322Z,1.57
2018-06-19T09:56:44.837Z,1.67
2018-06-19T09:59:13.426Z,1.40
2018-06-19T10:01:41.892Z,1.67
2018-06-19T10:04:10.351Z,1.07
2018-06-19T10:06:38.537Z,2.07
2018-06-19T10:09:08.266Z,1.73
2018-06-19T10:11:36.848Z,1.80
2018-06-19T10:14:05.574Z,1.87
2018-06-19T10:16:34.077Z,1.33
2018-06-19T10:19:02.569Z,2.60
2018-06-19T10:21:33.524Z,1.67
2018-06-19T10:24:02.002Z,2.50
2018-06-19T10:26:30.501Z,2.50
2018-06-19T10:28:59.082Z,1.83
2018-06-19T10:31:27.567Z,2.80
2018-06-19T10:33:56.026Z,1.30
2018-06-19T10:36:24.509Z,3.97
2018-06-19T10:38:52.981Z,1.77
2018-06-19T10:41:21.209Z,2.00
2018-06-19T10:43:49.675Z,1.93
2018-06-19T10:46:18.172Z,2.07
2018-06-19T10:48:46.698Z,2.67
2018-06-19T10:51:15.185Z,2.97
2018-06-19T10:53:43.672Z,1.40
2018-06-19T10:56:12.213Z,2.00
2018-06-19T10:58:40.701Z,1.87
2018-06-19T11:01:09.162Z,2.53
2018-06-19T11:03:37.653Z,5.43
2018-06-19T11:06:06.141Z,2.20
2018-06-19T11:08:34.664Z,2.13
2018-06-19T11:11:03.181Z,1.40
2018-06-19T11:13:31.642Z,2.00
2018-06-19T11:16:00.121Z,2.27
2018-06-19T11:18:28.609Z,2.00
2018-06-19T11:20:57.078Z,1.30
2018-06-19T11:23:25.539Z,1.33
2018-06-19T11:25:54.049Z,1.90
2018-06-19T11:28:22.513Z,1.83
2018-06-19T11:30:51.010Z,1.20
2018-06-19T11:33:19.474Z,2.20
2018-06-19T11:35:47.974Z,4.23
2018-06-19T11:38:16.493Z,1.47
2018-06-19T11:40:45.330Z,2.23
2018-06-19T11:43:13.798Z,1.40
2018-06-19T11:45:42.278Z,2.20
2018-06-19T11:48:10.725Z,1.13
2018-06-19T11:50:38.909Z,3.27
2018-06-19T11:53:07.073Z,1.70
2018-06-19T11:55:35.572Z,1.43
2018-06-19T11:58:04.073Z,1.77
2018-06-19T12:00:32.534Z,2.13
2018-06-19T12:03:01.042Z,2.20
2018-06-19T12:05:29.537Z,1.70
2018-06-19T12:07:58.026Z,2.60
2018-06-19T12:10:26.506Z,1.20
2018-06-19T12:12:54.984Z,2.50
2018-06-19T12:15:23.417Z,2.27
2018-06-19T12:17:51.895Z,1.10
2018-06-19T12:20:20.357Z,1.23
2018-06-19T12:22:48.518Z,2.80
2018-06-19T12:25:17.026Z,1.17
2018-06-19T12:27:45.561Z,1.10
2018-06-19T12:30:14.022Z,1.27
2018-06-19T12:32:42.521Z,1.53
2018-06-19T12:35:10.986Z,2.13
2018-06-19T12:37:39.468Z,2.50
2018-06-19T12:40:07.969Z,1.47
2018-06-19T12:42:36.456Z,2.47
2018-06-19T12:45:05.102Z,2.23
2018-06-19T12:47:34.216Z,3.63
2018-06-19T12:50:40.451Z,1.63
2018-06-19T12:53:20.601Z,2.00
2018-06-19T12:56:00.946Z,2.27
2018-06-19T12:58:29.470Z,1.93
2018-06-19T13:00:57.966Z,1.20
2018-06-19T13:03:37.806Z,2.43
2018-06-19T13:06:17.604Z,1.50
2018-06-19T13:08:46.112Z,2.00
2018-06-19T13:11:14.673Z,3.20
2018-06-19T13:13:54.193Z,1.30
2018-06-19T13:16:27.910Z,2.07
2018-06-19T13:19:01.740Z,2.27
2018-06-19T13:21:31.238Z,2.93
2018-06-19T13:23:59.773Z,1.60
2018-06-19T13:26:28.253Z,1.87
2018-06-19T13:30:06.726Z,1.93
2018-06-19T13:32:35.793Z,2.43
2018-06-19T13:35:03.964Z,3.07
2018-06-19T13:37:32.104Z,1.57
2018-06-19T13:41:14.612Z,3.17
2018-06-19T13:44:55.603Z,3.87
2018-06-19T13:47:24.077Z,2.17
2018-06-19T13:49:52.568Z,2.73
2018-06-19T13:52:21.048Z,2.80
2018-06-19T13:54:49.553Z,2.90
2018-06-19T13:57:25.429Z,2.03
2018-06-19T13:59:53.961Z,1.67
2018-06-19T14:02:22.494Z,2.67
2018-06-19T14:04:51.089Z,3.67
2018-06-19T14:07:20.515Z,2.93
2018-06-19T14:10:00.344Z,3.20
2018-06-19T14:12:40.426Z,2.63
2018-06-19T14:15:08.641Z,3.90
2018-06-19T14:17:37.082Z,2.67
2018-06-19T14:20:05.583Z,2.30
2018-06-19T14:22:33.771Z,2.77
2018-06-19T14:25:02.286Z,2.97
2018-06-19T14:27:30.774Z,4.50
2018-06-19T14:29:59.244Z,2.33
2018-06-19T14:32:27.890Z,4.00
2018-06-19T14:34:56.370Z,3.53
2018-06-19T14:37:24.870Z,4.47
2018-06-19T14:39:53.330Z,2.93
2018-06-19T14:42:21.822Z,2.97
2018-06-19T14:44:50.281Z,3.53
2018-06-19T14:47:18.485Z,3.00
2018-06-19T14:49:46.925Z,2.97
2018-06-19T14:52:15.410Z,2.90
2018-06-19T14:54:45.964Z,2.87
2018-06-19T14:57:14.449Z,3.93
2018-06-19T14:59:43.031Z,3.87
2018-06-19T15:02:11.549Z,3.23
2018-06-19T15:04:40.043Z,3.77
2018-06-19T15:07:08.525Z,2.80
2018-06-19T15:09:37.005Z,2.87
2018-06-19T15:12:05.515Z,2.77
2018-06-19T15:14:33.670Z,3.70
2018-06-19T15:17:02.161Z,3.13
2018-06-19T15:19:30.633Z,4.43
2018-06-19T15:21:59.094Z,2.87
2018-06-19T15:24:27.609Z,3.73
2018-06-19T15:26:56.102Z,4.87
2018-06-19T15:29:24.602Z,3.57
2018-06-19T15:31:53.774Z,4.97
2018-06-19T15:34:21.950Z,4.10
2018-06-19T15:36:50.438Z,4.07
2018-06-19T15:39:18.936Z,4.20
2018-06-19T15:41:47.405Z,3.27
2018-06-19T15:44:15.965Z,4.53
2018-06-19T15:46:44.417Z,3.40
2018-06-19T15:49:12.950Z,3.87
2018-06-19T15:51:41.415Z,2.87
2018-06-19T15:54:09.907Z,4.90
2018-06-19T15:56:38.393Z,3.80
2018-06-19T15:59:06.898Z,2.87
2018-06-19T16:01:35.362Z,4.03
2018-06-19T16:04:03.858Z,3.37
2018-06-19T16:06:32.367Z,3.43
2018-06-19T16:09:00.865Z,2.80
2018-06-19T16:11:29.334Z,3.10
2018-06-19T16:13:57.837Z,5.70
2018-06-19T16:16:25.981Z,2.87
2018-06-19T16:18:54.471Z,2.80
2018-06-19T16:21:23.004Z,3.43
2018-06-19T16:23:51.494Z,3.70
2018-06-19T16:26:19.986Z,2.83
2018-06-19T16:28:48.454Z,2.83
2018-06-19T16:31:16.934Z,2.77
2018-06-19T16:33:46.521Z,3.30
2018-06-19T16:36:15.073Z,3.93
2018-06-19T16:38:43.233Z,3.43
2018-06-19T16:41:11.738Z,2.73
2018-06-19T16:43:39.896Z,1.80
2018-06-19T16:46:08.081Z,2.00
2018-06-19T16:48:36.208Z,3.00
2018-06-19T16:51:04.786Z,1.80
2018-06-19T16:53:33.266Z,2.67
2018-06-19T16:56:01.746Z,3.03
2018-06-19T16:58:31.102Z,2.17
2018-06-19T17:01:00.505Z,1.90
2018-06-19T17:03:32.327Z,2.27
2018-06-19T17:06:02.620Z,2.00
2018-06-19T17:08:31.773Z,1.70
2018-06-19T17:11:00.974Z,2.70
2018-06-19T17:13:29.474Z,2.57
2018-06-19T17:15:57.969Z,1.83
2018-06-19T17:18:26.433Z,2.20
2018-06-19T17:20:55.192Z,1.73
2018-06-19T17:23:23.746Z,1.60
2018-06-19T17:25:52.230Z,1.87
2018-06-19T17:28:20.712Z,3.20
2018-06-19T17:30:49.161Z,2.37
2018-06-19T17:33:17.628Z,1.87
2018-06-19T17:35:46.094Z,2.07
2018-06-19T17:38:14.605Z,2.20
2018-06-19T17:40:43.083Z,2.30
2018-06-19T17:43:11.572Z,1.63
2018-06-19T17:45:40.759Z,2.30
2018-06-19T17:48:09.265Z,3.20
2018-06-19T17:50:39.721Z,4.07
2018-06-19T17:53:08.285Z,2.47
2018-06-19T17:55:36.744Z,3.57
2018-06-19T17:58:05.305Z,1.83
2018-06-19T18:00:33.759Z,2.40
2018-06-19T18:03:01.932Z,2.47
2018-06-19T18:05:30.054Z,2.13
2018-06-19T18:07:58.529Z,2.00
2018-06-19T18:10:27.018Z,1.80
2018-06-19T18:12:55.549Z,2.53
2018-06-19T18:15:23.742Z,2.00
2018-06-19T18:17:52.186Z,1.60
2018-06-19T18:20:20.669Z,2.13
2018-06-19T18:22:48.841Z,1.83
2018-06-19T18:25:17.343Z,2.23
2018-06-19T18:27:45.832Z,2.17
2018-06-19T18:30:14.324Z,2.50
2018-06-19T18:32:42.813Z,1.63
2018-06-19T18:35:11.294Z,2.50
2018-06-19T18:37:39.773Z,3.23
2018-06-19T18:40:08.273Z,1.90
2018-06-19T18:42:36.725Z,3.03
2018-06-19T18:45:05.266Z,1.80
2018-06-19T18:47:33.721Z,3.87
2018-06-19T18:50:02.234Z,2.03
2018-06-19T18:52:30.384Z,1.97
2018-06-19T18:54:58.877Z,1.97
2018-06-19T18:57:27.349Z,2.20
2018-06-19T19:00:12.285Z,2.90
2018-06-19T19:02:40.758Z,2.23
2018-06-19T19:05:09.250Z,1.77
2018-06-19T19:07:37.737Z,2.40
2018-06-19T19:10:11.530Z,2.57
2018-06-19T19:12:40.026Z,4.70
2018-06-19T19:15:14.014Z,2.77
2018-06-19T19:17:47.706Z,3.70
2018-06-19T19:20:16.201Z,2.63
2018-06-19T19:22:44.670Z,3.60
2018-06-19T19:25:13.163Z,2.60
2018-06-19T19:27:47.545Z,4.10
2018-06-19T19:30:15.993Z,3.60
2018-06-19T19:32:44.449Z,3.17
2018-06-19T19:35:12.894Z,3.50
2018-06-19T19:37:46.630Z,2.20
2018-06-19T19:40:15.076Z,2.93
2018-06-19T19:42:43.608Z,3.27
2018-06-19T19:45:12.100Z,3.33
2018-06-19T19:47:46.051Z,3.13
2018-06-19T19:50:14.497Z,2.87
2018-06-19T19:52:42.681Z,5.67
2018-06-19T19:55:10.828Z,3.17
2018-06-19T19:59:47.840Z,3.03
2018-06-19T20:02:16.296Z,2.37
2018-06-19T20:04:44.802Z,3.17
2018-06-19T20:07:13.337Z,2.97
2018-06-19T20:09:41.765Z,4.40
2018-06-19T20:12:10.270Z,3.03
2018-06-19T20:14:38.734Z,3.00
2018-06-19T20:17:07.250Z,3.47
2018-06-19T20:19:35.709Z,2.67
2018-06-19T20:22:04.235Z,4.03
2018-06-19T20:24:32.706Z,3.20
2018-06-19T20:27:01.204Z,4.87
2018-06-19T20:29:29.670Z,5.53
2018-06-19T20:31:58.196Z,2.93
2018-06-19T20:34:26.699Z,5.20
2018-06-19T20:36:55.190Z,2.70
2018-06-19T20:39:23.642Z,3.00
2018-06-19T20:41:52.130Z,2.53
2018-06-19T20:44:20.636Z,2.83
2018-06-19T20:46:49.114Z,3.00
2018-06-19T20:49:17.620Z,6.13
2018-06-19T20:51:46.110Z,4.60
2018-06-19T20:54:25.284Z,3.67
2018-06-19T20:56:53.993Z,4.30
2018-06-19T20:59:22.555Z,6.10
2018-06-19T21:01:52.313Z,4.53
2018-06-19T21:04:21.726Z,2.80
2018-06-19T21:06:50.963Z,4.47
2018-06-19T21:09:20.474Z,3.33
2018-06-19T21:11:48.970Z,2.93
2018-06-19T21:14:17.499Z,4.80
2018-06-19T21:16:46.009Z,2.90
2018-06-19T21:19:14.532Z,3.90
2018-06-19T21:21:43.001Z,3.20
2018-06-19T21:24:11.518Z,3.80
2018-06-19T21:26:39.971Z,3.40
2018-06-19T21:29:08.453Z,4.47
2018-06-19T21:31:36.925Z,4.00
2018-06-19T21:34:05.541Z,3.10
2018-06-19T21:36:34.021Z,2.80
2018-06-19T21:39:02.573Z,3.13
2018-06-19T21:41:31.057Z,3.67
2018-06-19T21:43:59.557Z,3.00
2018-06-19T21:46:28.041Z,3.53
2018-06-19T21:48:56.617Z,5.30
2018-06-19T21:51:25.143Z,5.17
2018-06-19T21:53:53.618Z,3.97
2018-06-19T21:56:22.101Z,3.43
2018-06-19T21:58:50.565Z,3.10
2018-06-19T22:01:18.760Z,3.37
2018-06-19T22:03:47.239Z,4.87
2018-06-19T22:06:15.738Z,3.20
2018-06-19T22:08:44.254Z,3.43
2018-06-19T22:11:13.849Z,4.03
2018-06-19T22:13:42.340Z,3.90
2018-06-19T22:16:10.814Z,3.83
2018-06-19T22:18:39.277Z,3.60
2018-06-19T22:21:07.789Z,4.63
2018-06-19T22:23:36.289Z,4.93
2018-06-19T22:26:04.975Z,2.97
2018-06-19T22:28:33.574Z,3.57
2018-06-19T22:31:02.050Z,4.73
2018-06-19T22:33:30.217Z,3.20
2018-06-19T22:35:58.371Z,3.33
2018-06-19T22:38:27.002Z,3.43
2018-06-19T22:40:55.321Z,4.30
2018-06-19T22:43:23.811Z,4.80
2018-06-19T22:45:52.282Z,3.20
2018-06-19T22:48:20.761Z,3.47
2018-06-19T22:50:49.247Z,4.10
2018-06-19T22:53:17.757Z,3.50
2018-06-19T22:55:46.354Z,5.20
2018-06-19T22:58:14.869Z,3.70
2018-06-19T23:00:43.334Z,3.90
2018-06-19T23:03:11.829Z,4.23
2018-06-19T23:05:40.283Z,3.87
2018-06-19T23:08:08.789Z,4.70
2018-06-19T23:10:37.269Z,3.73
2018-06-19T23:13:05.753Z,4.40
2018-06-19T23:15:34.237Z,4.43
2018-06-19T23:18:02.725Z,4.07
2018-06-19T23:20:31.222Z,4.83
2018-06-19T23:22:59.740Z,6.33
2018-06-19T23:25:28.230Z,9.67
2018-06-19T23:27:56.709Z,3.83
2018-06-19T23:30:25.213Z,4.73
2018-06-19T23:32:53.672Z,5.00
2018-06-19T23:35:22.154Z,4.57
2018-06-19T23:37:50.633Z,3.37
2018-06-19T23:40:19.124Z,4.33
2018-06-19T23:42:47.598Z,4.10
2018-06-19T23:45:16.090Z,3.77
2018-06-19T23:47:44.575Z,4.07
2018-06-19T23:50:13.056Z,3.83
2018-06-19T23:52:41.523Z,3.90
2018-06-19T23:55:10.026Z,4.37
2018-06-19T23:57:38.499Z,4.60
